sensor_id;sensor_type;location;lat;lon;timestamp;P1;durP1;ratioP1;P2;durP2;ratioP2
72209;SDS011;60113;48.762;12.302;2023-07-13T00:00:29;4.60;;;3.08;;
72209;SDS011;60113;48.762;12.302;2023-07-13T00:03:15;5.45;;;3.50;;
72209;SDS011;60113;48.762;12.302;2023-07-13T00:05:56;7.40;;;3.63;;
72209;SDS011;60113;48.762;12.302;2023-07-13T00:08:22;6.53;;;3.60;;
72209;SDS011;60113;48.762;12.302;2023-07-13T00:10:48;4.45;;;3.53;;
72209;SDS011;60113;48.762;12.302;2023-07-13T00:13:19;7.10;;;2.88;;
72209;SDS011;60113;48.762;12.302;2023-07-13T00:15:50;5.95;;;3.58;;
72209;SDS011;60113;48.762;12.302;2023-07-13T00:18:16;6.75;;;3.72;;
72209;SDS011;60113;48.762;12.302;2023-07-13T00:20:48;5.65;;;3.35;;
72209;SDS011;60113;48.762;12.302;2023-07-13T00:23:13;4.55;;;2.80;;
72209;SDS011;60113;48.762;12.302;2023-07-13T00:25:48;5.97;;;3.50;;
72209;SDS011;60113;48.762;12.302;2023-07-13T00:28:18;5.85;;;3.65;;
72209;SDS011;60113;48.762;12.302;2023-07-13T00:30:44;5.25;;;3.30;;
72209;SDS011;60113;48.762;12.302;2023-07-13T00:33:12;11.05;;;3.83;;
72209;SDS011;60113;48.762;12.302;2023-07-13T00:35:56;7.63;;;3.78;;
72209;SDS011;60113;48.762;12.302;2023-07-13T00:38:23;5.40;;;3.47;;
72209;SDS011;60113;48.762;12.302;2023-07-13T00:40:48;7.50;;;3.45;;
72209;SDS011;60113;48.762;12.302;2023-07-13T00:43:18;5.07;;;3.65;;
72209;SDS011;60113;48.762;12.302;2023-07-13T00:48:25;6.07;;;3.50;;
72209;SDS011;60113;48.762;12.302;2023-07-13T00:51:01;5.43;;;3.28;;
72209;SDS011;60113;48.762;12.302;2023-07-13T00:53:39;10.27;;;3.50;;
72209;SDS011;60113;48.762;12.302;2023-07-13T00:56:13;5.75;;;3.25;;
72209;SDS011;60113;48.762;12.302;2023-07-13T00:58:42;5.20;;;3.13;;
72209;SDS011;60113;48.762;12.302;2023-07-13T01:01:10;5.65;;;3.08;;
72209;SDS011;60113;48.762;12.302;2023-07-13T01:03:49;4.90;;;3.05;;
72209;SDS011;60113;48.762;12.302;2023-07-13T01:06:18;5.15;;;3.10;;
72209;SDS011;60113;48.762;12.302;2023-07-13T01:08:43;4.68;;;2.42;;
72209;SDS011;60113;48.762;12.302;2023-07-13T01:11:12;4.60;;;3.22;;
72209;SDS011;60113;48.762;12.302;2023-07-13T01:13:37;5.75;;;2.90;;
72209;SDS011;60113;48.762;12.302;2023-07-13T01:16:13;6.82;;;2.97;;
72209;SDS011;60113;48.762;12.302;2023-07-13T01:18:45;5.13;;;3.00;;
72209;SDS011;60113;48.762;12.302;2023-07-13T01:21:17;5.45;;;2.70;;
72209;SDS011;60113;48.762;12.302;2023-07-13T01:24:02;4.68;;;2.55;;
72209;SDS011;60113;48.762;12.302;2023-07-13T01:26:46;5.30;;;2.50;;
72209;SDS011;60113;48.762;12.302;2023-07-13T01:29:15;4.57;;;2.83;;
72209;SDS011;60113;48.762;12.302;2023-07-13T01:31:43;7.72;;;2.80;;
72209;SDS011;60113;48.762;12.302;2023-07-13T01:34:18;3.33;;;2.78;;
72209;SDS011;60113;48.762;12.302;2023-07-13T01:36:43;3.30;;;2.40;;
72209;SDS011;60113;48.762;12.302;2023-07-13T01:39:08;4.95;;;2.67;;
72209;SDS011;60113;48.762;12.302;2023-07-13T01:41:34;5.15;;;2.88;;
72209;SDS011;60113;48.762;12.302;2023-07-13T01:44:02;4.03;;;2.58;;
72209;SDS011;60113;48.762;12.302;2023-07-13T01:46:30;3.30;;;2.30;;
72209;SDS011;60113;48.762;12.302;2023-07-13T01:48:59;7.13;;;2.78;;
72209;SDS011;60113;48.762;12.302;2023-07-13T01:51:24;3.95;;;2.95;;
72209;SDS011;60113;48.762;12.302;2023-07-13T01:53:52;4.50;;;3.05;;
72209;SDS011;60113;48.762;12.302;2023-07-13T01:56:20;4.45;;;2.60;;
72209;SDS011;60113;48.762;12.302;2023-07-13T01:59:04;6.22;;;2.50;;
72209;SDS011;60113;48.762;12.302;2023-07-13T02:01:41;2.83;;;2.40;;
72209;SDS011;60113;48.762;12.302;2023-07-13T02:04:18;5.00;;;2.80;;
72209;SDS011;60113;48.762;12.302;2023-07-13T02:06:44;7.18;;;2.63;;
72209;SDS011;60113;48.762;12.302;2023-07-13T02:09:12;8.93;;;2.15;;
72209;SDS011;60113;48.762;12.302;2023-07-13T02:11:37;5.78;;;2.97;;
72209;SDS011;60113;48.762;12.302;2023-07-13T02:14:02;10.05;;;2.47;;
72209;SDS011;60113;48.762;12.302;2023-07-13T02:16:31;5.78;;;2.58;;
72209;SDS011;60113;48.762;12.302;2023-07-13T02:19:08;8.50;;;2.40;;
72209;SDS011;60113;48.762;12.302;2023-07-13T02:21:34;3.28;;;2.45;;
72209;SDS011;60113;48.762;12.302;2023-07-13T02:24:11;3.42;;;2.50;;
72209;SDS011;60113;48.762;12.302;2023-07-13T02:26:48;7.82;;;2.45;;
72209;SDS011;60113;48.762;12.302;2023-07-13T02:29:16;4.30;;;2.25;;
72209;SDS011;60113;48.762;12.302;2023-07-13T02:31:50;6.05;;;2.75;;
72209;SDS011;60113;48.762;12.302;2023-07-13T02:34:15;4.32;;;2.70;;
72209;SDS011;60113;48.762;12.302;2023-07-13T02:36:40;4.20;;;2.83;;
72209;SDS011;60113;48.762;12.302;2023-07-13T02:39:13;8.35;;;3.00;;
72209;SDS011;60113;48.762;12.302;2023-07-13T02:41:38;9.20;;;2.58;;
72209;SDS011;60113;48.762;12.302;2023-07-13T02:44:06;8.02;;;3.00;;
72209;SDS011;60113;48.762;12.302;2023-07-13T02:46:45;6.38;;;3.33;;
72209;SDS011;60113;48.762;12.302;2023-07-13T02:49:13;4.38;;;2.83;;
72209;SDS011;60113;48.762;12.302;2023-07-13T02:51:48;3.90;;;2.38;;
72209;SDS011;60113;48.762;12.302;2023-07-13T02:54:19;4.80;;;3.15;;
72209;SDS011;60113;48.762;12.302;2023-07-13T02:56:45;11.45;;;5.18;;
72209;SDS011;60113;48.762;12.302;2023-07-13T02:59:10;7.10;;;4.40;;
72209;SDS011;60113;48.762;12.302;2023-07-13T03:01:38;7.07;;;4.45;;
72209;SDS011;60113;48.762;12.302;2023-07-13T03:04:10;26.75;;;14.38;;
72209;SDS011;60113;48.762;12.302;2023-07-13T03:06:45;24.27;;;16.33;;
72209;SDS011;60113;48.762;12.302;2023-07-13T03:09:14;16.10;;;8.05;;
72209;SDS011;60113;48.762;12.302;2023-07-13T03:11:42;8.25;;;5.28;;
72209;SDS011;60113;48.762;12.302;2023-07-13T03:14:08;7.63;;;4.60;;
72209;SDS011;60113;48.762;12.302;2023-07-13T03:16:49;7.47;;;3.53;;
72209;SDS011;60113;48.762;12.302;2023-07-13T03:19:17;6.72;;;3.33;;
72209;SDS011;60113;48.762;12.302;2023-07-13T03:21:48;4.97;;;2.75;;
72209;SDS011;60113;48.762;12.302;2023-07-13T03:24:14;6.85;;;3.00;;
72209;SDS011;60113;48.762;12.302;2023-07-13T03:26:48;3.72;;;2.63;;
72209;SDS011;60113;48.762;12.302;2023-07-13T03:29:14;4.47;;;2.72;;
72209;SDS011;60113;48.762;12.302;2023-07-13T03:31:39;4.00;;;2.78;;
72209;SDS011;60113;48.762;12.302;2023-07-13T03:34:07;3.47;;;2.58;;
72209;SDS011;60113;48.762;12.302;2023-07-13T03:36:45;5.70;;;2.85;;
72209;SDS011;60113;48.762;12.302;2023-07-13T03:39:10;3.65;;;2.50;;
72209;SDS011;60113;48.762;12.302;2023-07-13T03:41:48;4.80;;;2.30;;
72209;SDS011;60113;48.762;12.302;2023-07-13T03:44:15;3.47;;;2.28;;
72209;SDS011;60113;48.762;12.302;2023-07-13T03:46:42;4.05;;;2.72;;
72209;SDS011;60113;48.762;12.302;2023-07-13T03:49:07;10.80;;;2.50;;
72209;SDS011;60113;48.762;12.302;2023-07-13T03:51:33;7.65;;;2.90;;
72209;SDS011;60113;48.762;12.302;2023-07-13T03:54:07;4.43;;;2.78;;
72209;SDS011;60113;48.762;12.302;2023-07-13T03:56:33;6.13;;;2.78;;
72209;SDS011;60113;48.762;12.302;2023-07-13T03:59:14;6.10;;;2.97;;
72209;SDS011;60113;48.762;12.302;2023-07-13T04:01:39;7.68;;;2.53;;
72209;SDS011;60113;48.762;12.302;2023-07-13T04:04:10;6.32;;;2.60;;
72209;SDS011;60113;48.762;12.302;2023-07-13T04:06:37;10.55;;;3.20;;
72209;SDS011;60113;48.762;12.302;2023-07-13T04:09:05;5.55;;;3.42;;
72209;SDS011;60113;48.762;12.302;2023-07-13T04:11:33;6.90;;;3.10;;
72209;SDS011;60113;48.762;12.302;2023-07-13T04:14:01;8.13;;;3.25;;
72209;SDS011;60113;48.762;12.302;2023-07-13T04:16:27;3.90;;;2.78;;
72209;SDS011;60113;48.762;12.302;2023-07-13T04:18:52;6.47;;;3.08;;
72209;SDS011;60113;48.762;12.302;2023-07-13T04:21:28;3.92;;;2.78;;
72209;SDS011;60113;48.762;12.302;2023-07-13T04:24:13;7.00;;;3.38;;
72209;SDS011;60113;48.762;12.302;2023-07-13T04:26:41;4.20;;;2.60;;
72209;SDS011;60113;48.762;12.302;2023-07-13T04:29:09;6.45;;;3.95;;
72209;SDS011;60113;48.762;12.302;2023-07-13T04:31:43;7.93;;;3.20;;
72209;SDS011;60113;48.762;12.302;2023-07-13T04:34:09;5.45;;;2.95;;
72209;SDS011;60113;48.762;12.302;2023-07-13T04:36:43;5.20;;;2.90;;
72209;SDS011;60113;48.762;12.302;2023-07-13T04:39:20;8.68;;;2.85;;
72209;SDS011;60113;48.762;12.302;2023-07-13T04:41:49;4.03;;;2.60;;
72209;SDS011;60113;48.762;12.302;2023-07-13T04:44:14;6.57;;;2.80;;
72209;SDS011;60113;48.762;12.302;2023-07-13T04:46:52;5.50;;;2.78;;
72209;SDS011;60113;48.762;12.302;2023-07-13T04:49:17;3.67;;;2.50;;
72209;SDS011;60113;48.762;12.302;2023-07-13T04:51:52;6.90;;;2.53;;
72209;SDS011;60113;48.762;12.302;2023-07-13T04:54:20;4.15;;;2.45;;
72209;SDS011;60113;48.762;12.302;2023-07-13T04:56:46;6.00;;;2.95;;
72209;SDS011;60113;48.762;12.302;2023-07-13T04:59:14;6.30;;;2.47;;
72209;SDS011;60113;48.762;12.302;2023-07-13T05:01:39;4.57;;;2.20;;
72209;SDS011;60113;48.762;12.302;2023-07-13T05:04:08;3.88;;;2.10;;
72209;SDS011;60113;48.762;12.302;2023-07-13T05:06:42;4.32;;;2.30;;
72209;SDS011;60113;48.762;12.302;2023-07-13T05:09:07;4.72;;;2.50;;
72209;SDS011;60113;48.762;12.302;2023-07-13T05:11:36;4.13;;;2.47;;
72209;SDS011;60113;48.762;12.302;2023-07-13T05:14:13;4.20;;;2.70;;
72209;SDS011;60113;48.762;12.302;2023-07-13T05:16:43;7.40;;;2.70;;
72209;SDS011;60113;48.762;12.302;2023-07-13T05:19:08;4.13;;;2.72;;
72209;SDS011;60113;48.762;12.302;2023-07-13T05:21:40;3.85;;;2.33;;
72209;SDS011;60113;48.762;12.302;2023-07-13T05:24:18;7.78;;;2.40;;
72209;SDS011;60113;48.762;12.302;2023-07-13T05:26:49;6.03;;;2.50;;
72209;SDS011;60113;48.762;12.302;2023-07-13T05:29:21;3.83;;;2.53;;
72209;SDS011;60113;48.762;12.302;2023-07-13T05:31:59;11.45;;;2.38;;
72209;SDS011;60113;48.762;12.302;2023-07-13T05:34:24;3.35;;;2.13;;
72209;SDS011;60113;48.762;12.302;2023-07-13T05:36:53;3.83;;;2.30;;
72209;SDS011;60113;48.762;12.302;2023-07-13T05:39:18;3.95;;;2.40;;
72209;SDS011;60113;48.762;12.302;2023-07-13T05:41:44;4.70;;;2.65;;
72209;SDS011;60113;48.762;12.302;2023-07-13T05:44:09;3.33;;;2.17;;
72209;SDS011;60113;48.762;12.302;2023-07-13T05:46:47;3.78;;;2.28;;
72209;SDS011;60113;48.762;12.302;2023-07-13T05:49:22;3.35;;;2.20;;
72209;SDS011;60113;48.762;12.302;2023-07-13T05:51:47;4.82;;;2.20;;
72209;SDS011;60113;48.762;12.302;2023-07-13T05:54:16;7.25;;;2.40;;
72209;SDS011;60113;48.762;12.302;2023-07-13T05:56:41;7.00;;;2.67;;
72209;SDS011;60113;48.762;12.302;2023-07-13T05:59:09;2.75;;;1.88;;
72209;SDS011;60113;48.762;12.302;2023-07-13T06:01:38;7.00;;;2.30;;
72209;SDS011;60113;48.762;12.302;2023-07-13T06:04:06;3.45;;;2.13;;
72209;SDS011;60113;48.762;12.302;2023-07-13T06:06:46;4.07;;;2.28;;
72209;SDS011;60113;48.762;12.302;2023-07-13T06:09:11;2.53;;;1.80;;
72209;SDS011;60113;48.762;12.302;2023-07-13T06:11:36;3.17;;;1.70;;
72209;SDS011;60113;48.762;12.302;2023-07-13T06:14:10;7.15;;;1.70;;
72209;SDS011;60113;48.762;12.302;2023-07-13T06:16:36;2.47;;;1.40;;
72209;SDS011;60113;48.762;12.302;2023-07-13T06:19:04;5.03;;;1.90;;
72209;SDS011;60113;48.762;12.302;2023-07-13T06:21:41;2.33;;;1.63;;
72209;SDS011;60113;48.762;12.302;2023-07-13T06:24:10;2.55;;;1.50;;
72209;SDS011;60113;48.762;12.302;2023-07-13T06:26:44;1.90;;;1.27;;
72209;SDS011;60113;48.762;12.302;2023-07-13T06:29:09;5.97;;;1.38;;
72209;SDS011;60113;48.762;12.302;2023-07-13T06:31:34;2.80;;;1.67;;
72209;SDS011;60113;48.762;12.302;2023-07-13T06:34:03;3.35;;;1.60;;
72209;SDS011;60113;48.762;12.302;2023-07-13T06:36:40;2.88;;;1.52;;
72209;SDS011;60113;48.762;12.302;2023-07-13T06:39:06;6.05;;;2.00;;
72209;SDS011;60113;48.762;12.302;2023-07-13T06:41:44;1.98;;;1.50;;
72209;SDS011;60113;48.762;12.302;2023-07-13T06:44:09;3.92;;;1.50;;
72209;SDS011;60113;48.762;12.302;2023-07-13T06:46:46;3.38;;;1.30;;
72209;SDS011;60113;48.762;12.302;2023-07-13T06:49:14;2.92;;;1.35;;
72209;SDS011;60113;48.762;12.302;2023-07-13T06:51:40;2.88;;;1.42;;
72209;SDS011;60113;48.762;12.302;2023-07-13T06:54:05;3.25;;;1.30;;
72209;SDS011;60113;48.762;12.302;2023-07-13T06:56:39;3.92;;;1.40;;
72209;SDS011;60113;48.762;12.302;2023-07-13T06:59:05;2.83;;;1.35;;
72209;SDS011;60113;48.762;12.302;2023-07-13T07:01:36;3.72;;;1.30;;
72209;SDS011;60113;48.762;12.302;2023-07-13T07:04:01;7.20;;;1.30;;
72209;SDS011;60113;48.762;12.302;2023-07-13T07:06:30;1.65;;;1.13;;
72209;SDS011;60113;48.762;12.302;2023-07-13T07:08:59;5.55;;;1.38;;
72209;SDS011;60113;48.762;12.302;2023-07-13T07:11:25;3.55;;;1.40;;
72209;SDS011;60113;48.762;12.302;2023-07-13T07:13:51;3.67;;;1.30;;
72209;SDS011;60113;48.762;12.302;2023-07-13T07:16:18;2.13;;;1.10;;
72209;SDS011;60113;48.762;12.302;2023-07-13T07:18:44;3.42;;;1.15;;
72209;SDS011;60113;48.762;12.302;2023-07-13T07:21:10;4.20;;;1.17;;
72209;SDS011;60113;48.762;12.302;2023-07-13T07:23:38;4.60;;;1.05;;
72209;SDS011;60113;48.762;12.302;2023-07-13T07:26:06;4.75;;;1.27;;
72209;SDS011;60113;48.762;12.302;2023-07-13T07:31:10;1.98;;;1.08;;
72209;SDS011;60113;48.762;12.302;2023-07-13T07:33:41;3.30;;;0.90;;
72209;SDS011;60113;48.762;12.302;2023-07-13T07:36:08;5.50;;;1.25;;
72209;SDS011;60113;48.762;12.302;2023-07-13T07:38:36;2.90;;;0.90;;
72209;SDS011;60113;48.762;12.302;2023-07-13T07:41:03;3.25;;;1.10;;
72209;SDS011;60113;48.762;12.302;2023-07-13T07:43:38;3.60;;;1.42;;
72209;SDS011;60113;48.762;12.302;2023-07-13T07:46:06;1.70;;;1.00;;
72209;SDS011;60113;48.762;12.302;2023-07-13T07:48:41;2.78;;;1.10;;
72209;SDS011;60113;48.762;12.302;2023-07-13T07:51:09;1.52;;;0.88;;
72209;SDS011;60113;48.762;12.302;2023-07-13T07:53:37;2.22;;;0.93;;
72209;SDS011;60113;48.762;12.302;2023-07-13T07:56:05;1.10;;;0.88;;
72209;SDS011;60113;48.762;12.302;2023-07-13T07:58:36;2.33;;;1.00;;
72209;SDS011;60113;48.762;12.302;2023-07-13T08:01:04;1.83;;;0.65;;
72209;SDS011;60113;48.762;12.302;2023-07-13T08:03:33;2.45;;;0.95;;
72209;SDS011;60113;48.762;12.302;2023-07-13T08:06:08;4.10;;;0.90;;
72209;SDS011;60113;48.762;12.302;2023-07-13T08:08:37;2.42;;;0.90;;
72209;SDS011;60113;48.762;12.302;2023-07-13T08:11:05;3.25;;;1.10;;
72209;SDS011;60113;48.762;12.302;2023-07-13T08:13:44;3.05;;;1.17;;
72209;SDS011;60113;48.762;12.302;2023-07-13T08:16:10;3.78;;;0.80;;
72209;SDS011;60113;48.762;12.302;2023-07-13T08:18:42;2.72;;;0.93;;
72209;SDS011;60113;48.762;12.302;2023-07-13T08:21:08;1.95;;;0.82;;
72209;SDS011;60113;48.762;12.302;2023-07-13T08:23:36;1.45;;;0.90;;
72209;SDS011;60113;48.762;12.302;2023-07-13T08:26:02;2.42;;;1.00;;
72209;SDS011;60113;48.762;12.302;2023-07-13T08:28:32;1.92;;;0.90;;
72209;SDS011;60113;48.762;12.302;2023-07-13T08:31:02;2.20;;;1.20;;
72209;SDS011;60113;48.762;12.302;2023-07-13T08:33:37;1.48;;;0.95;;
72209;SDS011;60113;48.762;12.302;2023-07-13T08:36:03;1.38;;;0.93;;
72209;SDS011;60113;48.762;12.302;2023-07-13T08:38:33;6.28;;;1.10;;
72209;SDS011;60113;48.762;12.302;2023-07-13T08:41:03;1.38;;;0.77;;
72209;SDS011;60113;48.762;12.302;2023-07-13T08:43:50;3.85;;;1.20;;
72209;SDS011;60113;48.762;12.302;2023-07-13T08:46:24;2.75;;;0.93;;
72209;SDS011;60113;48.762;12.302;2023-07-13T08:48:59;30.35;;;19.85;;
72209;SDS011;60113;48.762;12.302;2023-07-13T08:54:12;5.05;;;3.90;;
72209;SDS011;60113;48.762;12.302;2023-07-13T08:56:46;1.67;;;1.10;;
72209;SDS011;60113;48.762;12.302;2023-07-13T08:59:18;3.40;;;1.38;;
72209;SDS011;60113;48.762;12.302;2023-07-13T09:04:15;1.25;;;0.90;;
72209;SDS011;60113;48.762;12.302;2023-07-13T09:06:55;1.17;;;0.75;;
72209;SDS011;60113;48.762;12.302;2023-07-13T09:09:40;1.27;;;0.80;;
72209;SDS011;60113;48.762;12.302;2023-07-13T09:12:15;1.48;;;0.70;;
72209;SDS011;60113;48.762;12.302;2023-07-13T09:14:55;2.78;;;1.08;;
72209;SDS011;60113;48.762;12.302;2023-07-13T09:17:27;2.97;;;1.00;;
72209;SDS011;60113;48.762;12.302;2023-07-13T09:20:02;1.27;;;0.90;;
72209;SDS011;60113;48.762;12.302;2023-07-13T09:22:44;4.00;;;0.80;;
72209;SDS011;60113;48.762;12.302;2023-07-13T09:25:21;1.75;;;0.82;;
72209;SDS011;60113;48.762;12.302;2023-07-13T09:28:11;2.03;;;0.95;;
72209;SDS011;60113;48.762;12.302;2023-07-13T09:30:56;4.00;;;1.25;;
72209;SDS011;60113;48.762;12.302;2023-07-13T09:33:39;1.52;;;0.80;;
72209;SDS011;60113;48.762;12.302;2023-07-13T09:36:17;2.60;;;0.82;;
72209;SDS011;60113;48.762;12.302;2023-07-13T09:38:58;1.92;;;0.80;;
72209;SDS011;60113;48.762;12.302;2023-07-13T09:44:35;5.28;;;1.63;;
72209;SDS011;60113;48.762;12.302;2023-07-13T09:47:15;1.30;;;0.80;;
72209;SDS011;60113;48.762;12.302;2023-07-13T09:49:42;1.02;;;0.80;;
72209;SDS011;60113;48.762;12.302;2023-07-13T09:52:21;3.70;;;0.70;;
72209;SDS011;60113;48.762;12.302;2023-07-13T09:54:49;0.73;;;0.57;;
72209;SDS011;60113;48.762;12.302;2023-07-13T09:57:17;2.90;;;0.80;;
72209;SDS011;60113;48.762;12.302;2023-07-13T09:59:51;3.65;;;1.02;;
72209;SDS011;60113;48.762;12.302;2023-07-13T10:04:58;1.83;;;1.00;;
72209;SDS011;60113;48.762;12.302;2023-07-13T10:07:40;1.52;;;1.05;;
72209;SDS011;60113;48.762;12.302;2023-07-13T10:10:22;12.15;;;1.10;;
72209;SDS011;60113;48.762;12.302;2023-07-13T10:12:50;0.75;;;0.60;;
72209;SDS011;60113;48.762;12.302;2023-07-13T10:15:20;2.33;;;1.15;;
72209;SDS011;60113;48.762;12.302;2023-07-13T10:17:49;2.15;;;1.05;;
72209;SDS011;60113;48.762;12.302;2023-07-13T10:20:15;1.80;;;0.85;;
72209;SDS011;60113;48.762;12.302;2023-07-13T10:22:45;3.47;;;1.00;;
72209;SDS011;60113;48.762;12.302;2023-07-13T10:25:24;2.47;;;0.98;;
72209;SDS011;60113;48.762;12.302;2023-07-13T10:27:56;6.55;;;2.28;;
72209;SDS011;60113;48.762;12.302;2023-07-13T10:30:32;2.10;;;1.10;;
72209;SDS011;60113;48.762;12.302;2023-07-13T10:33:10;1.38;;;0.80;;
72209;SDS011;60113;48.762;12.302;2023-07-13T10:35:37;2.72;;;1.20;;
72209;SDS011;60113;48.762;12.302;2023-07-13T10:38:07;1.52;;;0.85;;
72209;SDS011;60113;48.762;12.302;2023-07-13T10:40:40;1.85;;;0.65;;
72209;SDS011;60113;48.762;12.302;2023-07-13T10:43:17;3.03;;;1.10;;
72209;SDS011;60113;48.762;12.302;2023-07-13T10:45:46;1.55;;;0.80;;
72209;SDS011;60113;48.762;12.302;2023-07-13T10:48:17;2.10;;;0.80;;
72209;SDS011;60113;48.762;12.302;2023-07-13T10:50:48;1.73;;;0.82;;
72209;SDS011;60113;48.762;12.302;2023-07-13T10:55:55;1.55;;;0.93;;
72209;SDS011;60113;48.762;12.302;2023-07-13T11:01:13;6.72;;;1.17;;
72209;SDS011;60113;48.762;12.302;2023-07-13T11:04:00;2.35;;;0.82;;
72209;SDS011;60113;48.762;12.302;2023-07-13T11:06:37;3.10;;;0.88;;
72209;SDS011;60113;48.762;12.302;2023-07-13T11:11:49;1.48;;;0.80;;
72209;SDS011;60113;48.762;12.302;2023-07-13T11:17:24;2.05;;;1.10;;
72209;SDS011;60113;48.762;12.302;2023-07-13T11:22:44;2.25;;;0.80;;
72209;SDS011;60113;48.762;12.302;2023-07-13T11:25:38;1.08;;;0.80;;
72209;SDS011;60113;48.762;12.302;2023-07-13T11:28:05;1.95;;;0.85;;
72209;SDS011;60113;48.762;12.302;2023-07-13T11:30:38;1.25;;;0.73;;
72209;SDS011;60113;48.762;12.302;2023-07-13T11:35:46;2.08;;;0.82;;
72209;SDS011;60113;48.762;12.302;2023-07-13T11:40:53;1.33;;;0.50;;
72209;SDS011;60113;48.762;12.302;2023-07-13T11:43:20;2.28;;;0.90;;
72209;SDS011;60113;48.762;12.302;2023-07-13T11:45:48;2.25;;;0.75;;
72209;SDS011;60113;48.762;12.302;2023-07-13T11:48:22;2.10;;;0.70;;
72209;SDS011;60113;48.762;12.302;2023-07-13T11:50:56;1.63;;;0.73;;
72209;SDS011;60113;48.762;12.302;2023-07-13T11:53:40;1.38;;;0.55;;
72209;SDS011;60113;48.762;12.302;2023-07-13T11:56:12;4.25;;;0.70;;
72209;SDS011;60113;48.762;12.302;2023-07-13T11:58:56;2.47;;;0.55;;
72209;SDS011;60113;48.762;12.302;2023-07-13T12:01:32;1.92;;;0.60;;
72209;SDS011;60113;48.762;12.302;2023-07-13T12:04:02;1.80;;;0.70;;
72209;SDS011;60113;48.762;12.302;2023-07-13T12:06:34;2.90;;;0.80;;
72209;SDS011;60113;48.762;12.302;2023-07-13T12:09:14;0.95;;;0.70;;
72209;SDS011;60113;48.762;12.302;2023-07-13T12:11:47;1.05;;;0.70;;
72209;SDS011;60113;48.762;12.302;2023-07-13T12:14:16;0.88;;;0.50;;
72209;SDS011;60113;48.762;12.302;2023-07-13T12:16:42;1.30;;;0.70;;
72209;SDS011;60113;48.762;12.302;2023-07-13T12:19:21;9.13;;;0.93;;
72209;SDS011;60113;48.762;12.302;2023-07-13T12:21:48;3.80;;;1.38;;
72209;SDS011;60113;48.762;12.302;2023-07-13T12:24:18;1.40;;;0.60;;
72209;SDS011;60113;48.762;12.302;2023-07-13T12:26:58;2.20;;;0.70;;
72209;SDS011;60113;48.762;12.302;2023-07-13T12:29:35;1.17;;;0.60;;
72209;SDS011;60113;48.762;12.302;2023-07-13T12:32:03;0.75;;;0.55;;
72209;SDS011;60113;48.762;12.302;2023-07-13T12:34:53;1.35;;;0.60;;
72209;SDS011;60113;48.762;12.302;2023-07-13T12:37:22;2.33;;;0.70;;
72209;SDS011;60113;48.762;12.302;2023-07-13T12:40:12;3.20;;;0.80;;
72209;SDS011;60113;48.762;12.302;2023-07-13T12:42:49;1.92;;;0.60;;
72209;SDS011;60113;48.762;12.302;2023-07-13T12:45:21;3.30;;;0.90;;
72209;SDS011;60113;48.762;12.302;2023-07-13T12:48:05;1.70;;;0.60;;
72209;SDS011;60113;48.762;12.302;2023-07-13T12:50:46;2.53;;;0.88;;
72209;SDS011;60113;48.762;12.302;2023-07-13T12:53:20;2.70;;;0.50;;
72209;SDS011;60113;48.762;12.302;2023-07-13T12:55:51;1.05;;;0.60;;
72209;SDS011;60113;48.762;12.302;2023-07-13T12:58:25;1.73;;;1.00;;
72209;SDS011;60113;48.762;12.302;2023-07-13T13:00:54;2.45;;;0.63;;
72209;SDS011;60113;48.762;12.302;2023-07-13T13:03:26;0.73;;;0.50;;
72209;SDS011;60113;48.762;12.302;2023-07-13T13:08:45;0.43;;;0.40;;
72209;SDS011;60113;48.762;12.302;2023-07-13T13:11:11;3.03;;;0.70;;
72209;SDS011;60113;48.762;12.302;2023-07-13T13:13:39;1.30;;;0.60;;
72209;SDS011;60113;48.762;12.302;2023-07-13T13:16:09;5.72;;;0.70;;
72209;SDS011;60113;48.762;12.302;2023-07-13T13:18:51;1.15;;;0.65;;
72209;SDS011;60113;48.762;12.302;2023-07-13T13:21:24;3.95;;;0.70;;
72209;SDS011;60113;48.762;12.302;2023-07-13T13:23:51;1.38;;;0.55;;
72209;SDS011;60113;48.762;12.302;2023-07-13T13:26:18;0.63;;;0.50;;
72209;SDS011;60113;48.762;12.302;2023-07-13T13:28:49;1.33;;;0.70;;
72209;SDS011;60113;48.762;12.302;2023-07-13T13:31:21;2.47;;;1.00;;
72209;SDS011;60113;48.762;12.302;2023-07-13T13:33:46;1.45;;;0.50;;
72209;SDS011;60113;48.762;12.302;2023-07-13T13:36:16;0.80;;;0.70;;
72209;SDS011;60113;48.762;12.302;2023-07-13T13:38:50;1.95;;;0.60;;
72209;SDS011;60113;48.762;12.302;2023-07-13T13:41:21;0.80;;;0.52;;
72209;SDS011;60113;48.762;12.302;2023-07-13T13:43:47;1.33;;;0.60;;
72209;SDS011;60113;48.762;12.302;2023-07-13T13:46:17;1.90;;;0.70;;
72209;SDS011;60113;48.762;12.302;2023-07-13T13:48:50;0.82;;;0.47;;
72209;SDS011;60113;48.762;12.302;2023-07-13T13:51:19;1.88;;;0.60;;
72209;SDS011;60113;48.762;12.302;2023-07-13T13:53:52;1.67;;;0.70;;
72209;SDS011;60113;48.762;12.302;2023-07-13T13:56:19;1.08;;;0.68;;
72209;SDS011;60113;48.762;12.302;2023-07-13T13:58:48;1.98;;;0.63;;
72209;SDS011;60113;48.762;12.302;2023-07-13T14:01:22;2.05;;;0.70;;
72209;SDS011;60113;48.762;12.302;2023-07-13T14:03:49;0.93;;;0.68;;
72209;SDS011;60113;48.762;12.302;2023-07-13T14:06:16;1.92;;;0.50;;
72209;SDS011;60113;48.762;12.302;2023-07-13T14:08:45;3.67;;;0.90;;
72209;SDS011;60113;48.762;12.302;2023-07-13T14:11:15;1.63;;;0.50;;
72209;SDS011;60113;48.762;12.302;2023-07-13T14:13:48;1.20;;;0.47;;
72209;SDS011;60113;48.762;12.302;2023-07-13T14:16:17;1.55;;;0.60;;
72209;SDS011;60113;48.762;12.302;2023-07-13T14:18:44;1.08;;;0.70;;
72209;SDS011;60113;48.762;12.302;2023-07-13T14:21:11;1.77;;;0.70;;
72209;SDS011;60113;48.762;12.302;2023-07-13T14:23:49;1.48;;;0.55;;
72209;SDS011;60113;48.762;12.302;2023-07-13T14:26:19;2.60;;;0.68;;
72209;SDS011;60113;48.762;12.302;2023-07-13T14:28:50;1.30;;;0.40;;
72209;SDS011;60113;48.762;12.302;2023-07-13T14:31:17;1.77;;;0.88;;
72209;SDS011;60113;48.762;12.302;2023-07-13T14:33:46;1.92;;;0.50;;
72209;SDS011;60113;48.762;12.302;2023-07-13T14:36:29;0.80;;;0.57;;
72209;SDS011;60113;48.762;12.302;2023-07-13T14:39:01;1.65;;;0.68;;
72209;SDS011;60113;48.762;12.302;2023-07-13T14:41:43;0.95;;;0.60;;
72209;SDS011;60113;48.762;12.302;2023-07-13T14:49:21;1.67;;;0.70;;
72209;SDS011;60113;48.762;12.302;2023-07-13T14:51:57;0.95;;;0.57;;
72209;SDS011;60113;48.762;12.302;2023-07-13T14:54:38;1.10;;;0.68;;
72209;SDS011;60113;48.762;12.302;2023-07-13T14:57:08;2.53;;;0.70;;
72209;SDS011;60113;48.762;12.302;2023-07-13T15:00:02;1.42;;;0.70;;
72209;SDS011;60113;48.762;12.302;2023-07-13T15:02:50;2.28;;;0.50;;
72209;SDS011;60113;48.762;12.302;2023-07-13T15:05:22;1.33;;;0.70;;
72209;SDS011;60113;48.762;12.302;2023-07-13T15:07:52;0.68;;;0.55;;
72209;SDS011;60113;48.762;12.302;2023-07-13T15:10:23;0.85;;;0.50;;
72209;SDS011;60113;48.762;12.302;2023-07-13T15:13:01;1.08;;;0.77;;
72209;SDS011;60113;48.762;12.302;2023-07-13T15:15:38;1.48;;;0.73;;
72209;SDS011;60113;48.762;12.302;2023-07-13T15:18:08;1.48;;;0.88;;
72209;SDS011;60113;48.762;12.302;2023-07-13T15:20:41;1.75;;;0.60;;
72209;SDS011;60113;48.762;12.302;2023-07-13T15:23:22;3.78;;;0.70;;
72209;SDS011;60113;48.762;12.302;2023-07-13T15:25:51;3.28;;;0.75;;
72209;SDS011;60113;48.762;12.302;2023-07-13T15:28:17;1.02;;;0.70;;
72209;SDS011;60113;48.762;12.302;2023-07-13T15:30:51;1.10;;;0.50;;
72209;SDS011;60113;48.762;12.302;2023-07-13T15:33:27;1.00;;;0.50;;
72209;SDS011;60113;48.762;12.302;2023-07-13T15:35:59;5.55;;;0.60;;
72209;SDS011;60113;48.762;12.302;2023-07-13T15:38:27;2.58;;;0.65;;
72209;SDS011;60113;48.762;12.302;2023-07-13T15:40:55;1.80;;;0.82;;